• Join FlightAware (Why Join?)
  • Login
  • US Flag 
06:14AM EDT


 

Airport Tracker/Info


-or-


 

Live Flight TrackerFlight Track Log ✈ BOE1 ✈ 11-Feb-2010 ✈ KBFI - KNUW

Flight Track Log - Related Links

Times and Time Zones

All times are in EST time to prevent confusion due to time zone crossing. See the BOE1 flight status page for this flight to view local times or setup timezone preferences in your user account.

Time Position Orientation Groundspeed Altitude Reporting Facility
EST Latitude Longitude Course Direction KTS MPH feet Rate Location/Type
03:10PM 47.5089 -122.2880 144° Southeast 166 191 1,500  Level Seattle Center
03:11PM 47.4967 -122.2750 141° Southeast 163 188 2,300 1,620 Climbing Seattle Center
03:12PM 47.4561 -122.2270 192° South 204 235 3,700 1,800 Climbing Seattle Center
03:12PM 47.4169 -122.2040 221° Southwest 10,000 2,040 Climbing Seattle Center
03:13PM 47.3806 -122.2510 287° West 210 242 7,300 -480 Descending Seattle Center
03:14PM 47.3994 -122.3410 316° Northwest 177 204 9,100 1,260 Climbing Seattle Center
03:15PM 47.4500 -122.4140 314° West 187 215 9,900 420 Climbing Seattle Center
03:16PM 47.5003 -122.4900 304° West 226 260 10,000  Climbing Seattle Center
03:17PM 47.5397 -122.5780 300° West 245 282 10,000  Level Seattle Center
03:18PM 47.5750 -122.6690 301° West 250 288 10,000  Level Seattle Center
03:19PM 47.6103 -122.7570 298° West 256 295 10,000  Level Seattle Center
03:20PM 47.6433 -122.8480 300° West 256 295 10,000  Level Seattle Center
03:21PM 47.6786 -122.9400 300° West 256 295 10,000  Level Seattle Center
03:22PM 47.7136 -123.0310 323° Northwest 256 295 10,000  Level Seattle Center
03:23PM 47.7681 -123.0930 North 256 295 10,000  Level Seattle Center
03:24PM 47.8514 -123.0860 359° North 244 281 10,000 -60 Level Seattle Center
03:25PM 47.9158 -123.0870 11° North 296 341 9,900  Descending Seattle Center
03:25PM 47.9328 -123.0820 North 272 313 10,000  Climbing Seattle Center
03:26PM 47.9847 -123.0790 North 285 328 9,900  Descending Seattle Center
03:26PM 48.0119 -123.0740 360° North 277 319 10,000 -120 Climbing Seattle Center
03:27PM 48.0639 -123.0740 North 282 325 9,800 -420 Descending Seattle Center
03:27PM 48.0911 -123.0700 North 277 319 9,600 -780 Descending Seattle Center
03:28PM 48.1369 -123.0690 North 282 325 9,100 -900 Descending Seattle Center
03:28PM 48.1661 -123.0620 31° Northeast 277 319 8,700 -900 Descending Seattle Center
03:29PM 48.2089 -123.0240 40° Northeast 290 334 8,200 -1,140 Descending Seattle Center
03:29PM 48.2325 -122.9940 35° Northeast 267 307 7,600 -1,740 Descending Seattle Center
03:30PM 48.2711 -122.9530 39° Northeast 268 308 6,500 -1,320 Descending Seattle Center
03:30PM 48.2906 -122.9290 45° Northeast 267 307 6,300 -240 Descending Seattle Center
03:31PM 48.3164 -122.8900 53° Northeast 256 295 6,300 -120 Level Seattle Center
03:31PM 48.3361 -122.8510 49° Northeast 255 293 6,200 -300 Descending Seattle Center
03:32PM 48.3622 -122.8060 56° Northeast 255 293 6,000 -120 Descending Seattle Center
03:32PM 48.3800 -122.7660 52° Northeast 249 287 6,100  Climbing Seattle Center
03:33PM 48.4019 -122.7240 49° Northeast 241 277 6,000  Descending Seattle Center
03:33PM 48.4214 -122.6900 54° Northeast 243 280 6,100  Climbing Seattle Center
03:34PM 48.4433 -122.6450 56° Northeast 242 278 6,000  Descending Seattle Center
03:34PM 48.4586 -122.6110 45° Northeast 243 280 6,100 60 Climbing Seattle Center
03:35PM 48.4825 -122.5750 54° Northeast 240 276 6,100 780 Level Seattle Center
03:35PM 48.5086 -122.5200 56° Northeast 243 280 6,900 1,080 Climbing Seattle Center
03:36PM 48.5239 -122.4860 41° Northeast 260 299 7,200 1,080 Climbing Seattle Center
03:36PM 48.5583 -122.4410 346° North 249 287 8,000 1,200 Climbing Seattle Center
03:37PM 48.5872 -122.4520 300° West 260 299 8,400 900 Climbing Seattle Center
03:37PM 48.6047 -122.4970 256° West 160 184 8,900 540 Climbing Seattle Center
03:38PM 48.5975 -122.5400 215° Southwest 221 254 9,000 180 Climbing Seattle Center
03:38PM 48.5719 -122.5670 223° Southwest 105 121 9,100 -360 Climbing Seattle Center
03:39PM 48.5506 -122.5970 217° Southwest 203 234 8,600 -840 Descending Seattle Center
03:39PM 48.5292 -122.6210 218° Southwest 139 160 8,300 -900 Descending Seattle Center
03:40PM 48.5142 -122.6390 223° Southwest 182 209 7,800 -900 Descending Seattle Center
03:40PM 48.4947 -122.6660 220° Southwest 165 190 7,400 -1,080 Descending Seattle Center
03:41PM 48.4756 -122.6900 219° Southwest 162 186 6,600 -1,140 Descending Seattle Center
03:41PM 48.4606 -122.7080 220° Southwest 172 198 6,300 -1,020 Descending Seattle Center
03:42PM 48.4389 -122.7350 215° Southwest 170 196 5,600 -1,020 Descending Seattle Center
03:42PM 48.4219 -122.7530 223° Southwest 172 198 5,300 -420 Descending Seattle Center
03:43PM 48.4047 -122.7770 211° Southwest 167 192 5,200  Descending Seattle Center
03:43PM 48.3856 -122.7940 223° Southwest 172 198 5,300  Climbing Seattle Center
03:44PM 48.3639 -122.8240 217° Southwest 167 192 5,200 -120 Descending Seattle Center
03:45PM 48.3319 -122.8600 219° Southwest 166 191 5,200  Level Seattle Center
03:46PM 48.2953 -122.9050 220° Southwest 168 193 5,200  Level Seattle Center
03:47PM 48.2608 -122.9490 218° Southwest 166 191 5,200  Level Seattle Center
03:48PM 48.2244 -122.9910 194° South 166 191 5,200  Level Seattle Center
03:49PM 48.1803 -123.0070 68° East 175 201 5,200  Level Seattle Center
03:50PM 48.1942 -122.9550 38° Northeast 173 199 5,200  Level Seattle Center
03:51PM 48.2328 -122.9100 35° Northeast 160 184 5,200 -120 Level Seattle Center
03:52PM 48.2714 -122.8690 39° Northeast 159 183 5,000 -120 Descending Seattle Center
03:53PM 48.3033 -122.8300 38° Northeast 152 175 5,000  Level Seattle Center
03:54PM 48.3356 -122.7920 33° Northeast 151 174 5,000  Level Seattle Center
03:55PM 48.3719 -122.7560 17° North 155 178 5,000  Level Seattle Center
03:56PM 48.4119 -122.7370 244° Southwest 165 190 5,100 60 Climbing Seattle Center
03:57PM 48.3961 -122.7860 221° Southwest 144 166 5,200  Climbing Seattle Center
03:58PM 48.3661 -122.8250 217° Southwest 143 165 5,200 480 Level Seattle Center
03:59PM 48.3381 -122.8570 229° Southwest 139 160 6,200 780 Climbing Seattle Center
04:00PM 48.3164 -122.8940 217° Southwest 121 139 6,800 420 Climbing Seattle Center
04:01PM 48.2906 -122.9230 225° Southwest 120 138 7,100 -120 Climbing Seattle Center
04:02PM 48.2625 -122.9650 213° Southwest 129 148 6,600 -600 Descending Seattle Center
04:03PM 48.2239 -123.0030 216° Southwest 150 173 5,900 -480 Descending Seattle Center
04:04PM 48.1833 -123.0480 104° East 194 223 5,700 -420 Descending Seattle Center
04:05PM 48.1708 -122.9720 34° Northeast 228 262 5,100 -600 Descending Seattle Center
04:06PM 48.2350 -122.9080 36° Northeast 243 280 4,400 -300 Descending Seattle Center
04:07PM 48.2819 -122.8570 35° Northeast 174 200 4,500  Climbing Seattle Center
04:08PM 48.3119 -122.8250 39° Northeast 159 183 4,400 -120 Descending Seattle Center
04:09PM 48.3483 -122.7800 44° Northeast 164 189 4,300  Descending Seattle Center
04:10PM 48.3853 -122.7260 342° North 187 215 4,400 120 Climbing Seattle Center
04:11PM 48.4367 -122.7510 234° Southwest 236 272 4,600 120 Climbing Seattle Center
04:12PM 48.4081 -122.8110 228° Southwest 217 250 4,700 300 Climbing Seattle Center
04:13PM 48.3667 -122.8810 223° Southwest 224 258 5,200 720 Climbing Seattle Center
04:14PM 48.3236 -122.9410 218° Southwest 222 255 6,200 1,440 Climbing Seattle Center
04:15PM 48.2633 -123.0120 221° Southwest 248 285 8,200 1,380 Climbing Seattle Center
04:16PM 48.2203 -123.0680 221° Southwest 217 250 9,000 780 Climbing Seattle Center